Carbon Cliff, IL (61239)

8:20 AM CST on December 04, 2016 (GMT -0600)
Colona Weather | | Change Station
Active Advisory: Winter Weather Advisory

Elev 580 ft 41.47 °N, 90.36 °W | Updated 8 seconds ago

Snow
Snow Fog
32.4 °F
Feels Like 32 °F
N
0.0
Wind Variable Wind from ESE
Gusts 0.0 mph

Today
High -- | Low -- °F
--% Chance of Precip.
Yesterday
High -- | Low -- °F
Precip. -- in
Pressure 30.09 in
Visibility 0.5 miles
Clouds
Windchill 32 °F
Dew Point 31 °F
Humidity 93%
Rainfall 0.00 in
Snow Depth Not available.
7:12 AM 4:31 PM
Waxing Crescent, 23% visible
METAR KMLI 041352Z 10008KT 1/2SM SN FG VV007 00/M01 A3007 RMK AO2 SLP190 P0005 T00001011 RVRNO
Pressure 30.09 in
Visibility 0.5 miles
Clouds
Windchill 32 °F
Dew Point 31 °F
Humidity 93%
Rainfall 0.00 in
Snow Depth Not available.
7:12 AM 4:31 PM
Waxing Crescent, 23% visible
METAR KMLI 041352Z 10008KT 1/2SM SN FG VV007 00/M01 A3007 RMK AO2 SLP190 P0005 T00001011 RVRNO

10-Day Weather Forecast

Almanac

Astronomy

Dec. 04, 2016 Rise Set
Actual Time
Civil Twilight
Nautical Twilight
Astronomical Twilight
Moon
Length of Visible Light
Length of Day
Tomorrow will be .
, % of the Moon is Illuminated

Today's Extremes

State Highs State Lows

Community

WunderPhotos

Upload Photos

1,955,598 photos uploaded!

WunderBlog® & News

Nearby

Air Quality

  Air Quality AQ Index Pollutant
Not available.

Snow Depth

Station Depth Elevation

Earthquake Activity

City Distance Mag. Time & Date
Minimum magnitude displayed is 2.5.

Coastal Water Temperatures

Place Temperature

Stations

Nearby Weather Stations

Station Location Temp. Windchill Dew Point Humidity Wind Precip. Elev Updated Type
                   

Watches & Warnings

Winter Weather Advisory
Issued: 4:19 AM CST Dec. 4, 2016 – National Weather Service

... Winter Weather Advisory remains in effect until 3 PM CST this
afternoon...

* timing... snow will begin between midnight and 3 am and end
early Sunday afternoon. The heaviest snowfall is expected
between 7 am and noon.

* Snow accumulations... 2 to 4 inches.

* Impacts... accumulating wet snow may lead to hazardous travel
conditions. Roadways may be slick at times due to slushy snow
and visibilities will be less than one mile at times.

Precautionary/preparedness actions...

A Winter Weather Advisory for snow means that periods of snow
will cause primarily travel difficulties. Be prepared for snow
covered roads and limited visibilities... and use caution while
driving.